createdAt,value
2023-03-11T00:00:31.628Z,0.20
2023-03-11T00:02:59.577Z,0.30
2023-03-11T00:05:28.776Z,0.23
2023-03-11T00:07:55.681Z,0.57
2023-03-11T00:10:30.103Z,0.22
2023-03-11T00:12:57.941Z,0.32
2023-03-11T00:15:24.911Z,0.20
2023-03-11T00:17:51.632Z,0.10
2023-03-11T00:20:40.048Z,0.57
2023-03-11T00:23:08.172Z,0.40
2023-03-11T00:25:36.505Z,0.32
2023-03-11T00:28:03.956Z,0.17
2023-03-11T00:30:30.853Z,0.30
2023-03-11T00:32:58.603Z,0.40
2023-03-11T00:35:28.515Z,0.60
2023-03-11T00:38:00.188Z,0.43
2023-03-11T00:40:29.336Z,0.70
2023-03-11T00:42:56.001Z,0.53
2023-03-11T00:45:22.752Z,0.38
2023-03-11T00:47:50.405Z,0.40
2023-03-11T00:50:21.202Z,0.40
2023-03-11T00:52:49.363Z,0.40
2023-03-11T00:55:19.676Z,0.43
2023-03-11T00:57:46.896Z,0.20
2023-03-11T01:00:19.633Z,0.68
2023-03-11T01:02:46.377Z,0.30
2023-03-11T01:05:13.629Z,0.32
2023-03-11T01:07:40.029Z,0.20
2023-03-11T01:10:07.824Z,0.50
2023-03-11T01:12:34.310Z,0.30
2023-03-11T01:15:00.743Z,0.20
2023-03-11T01:17:27.375Z,0.20
2023-03-11T01:19:53.876Z,0.30
2023-03-11T01:22:20.297Z,1.05
2023-03-11T01:24:46.769Z,0.60
2023-03-11T01:27:13.417Z,0.20
2023-03-11T01:29:39.802Z,0.28
2023-03-11T01:32:06.926Z,0.30
2023-03-11T01:34:35.969Z,0.30
2023-03-11T01:37:03.358Z,0.85
2023-03-11T01:39:29.692Z,0.32
2023-03-11T01:41:56.208Z,0.30
2023-03-11T01:44:22.779Z,0.20
2023-03-11T01:46:52.297Z,0.57
2023-03-11T01:49:20.467Z,0.40
2023-03-11T01:51:51.122Z,1.05
2023-03-11T01:54:36.735Z,0.20
2023-03-11T01:57:07.715Z,0.27
2023-03-11T01:59:39.448Z,0.47
2023-03-11T02:02:17.302Z,0.40
2023-03-11T02:04:44.578Z,0.20
2023-03-11T02:07:12.486Z,0.20
2023-03-11T02:09:38.874Z,0.47
2023-03-11T02:12:08.391Z,0.17
2023-03-11T02:14:35.841Z,0.20
2023-03-11T02:17:02.455Z,0.30
2023-03-11T02:19:51.814Z,0.30
2023-03-11T02:22:18.596Z,0.30
2023-03-11T02:25:09.372Z,0.20
2023-03-11T02:27:41.184Z,0.35
2023-03-11T02:30:10.730Z,0.20
2023-03-11T02:32:38.156Z,0.35
2023-03-11T02:35:05.499Z,0.40
2023-03-11T02:37:31.862Z,0.30
2023-03-11T02:40:23.813Z,0.10
2023-03-11T02:42:52.009Z,0.20
2023-03-11T02:45:22.007Z,0.40
2023-03-11T02:47:49.378Z,0.10
2023-03-11T02:50:18.216Z,0.20
2023-03-11T02:52:45.231Z,0.20
2023-03-11T02:55:11.953Z,0.20
2023-03-11T02:57:38.722Z,0.00
2023-03-11T03:00:15.158Z,0.20
2023-03-11T03:02:45.495Z,0.10
2023-03-11T03:05:12.901Z,0.20
2023-03-11T03:07:39.518Z,0.25
2023-03-11T03:10:06.840Z,0.10
2023-03-11T03:12:33.323Z,0.47
2023-03-11T03:14:59.720Z,0.30
2023-03-11T03:17:26.189Z,0.32
2023-03-11T03:19:52.588Z,0.82
2023-03-11T03:22:19.044Z,0.10
2023-03-11T03:24:45.479Z,0.27
2023-03-11T03:27:12.519Z,0.20
2023-03-11T03:29:38.890Z,0.20
2023-03-11T03:32:05.669Z,0.30
2023-03-11T03:34:32.179Z,0.20
2023-03-11T03:36:58.536Z,0.20
2023-03-11T03:39:24.948Z,0.25
2023-03-11T03:41:51.333Z,0.25
2023-03-11T03:44:18.235Z,0.50
2023-03-11T03:46:44.626Z,0.50
2023-03-11T03:49:11.002Z,0.40
2023-03-11T03:51:37.436Z,0.10
2023-03-11T03:54:06.761Z,0.30
2023-03-11T03:56:33.210Z,0.30
2023-03-11T03:58:59.609Z,0.30
2023-03-11T04:01:26.008Z,0.37
2023-03-11T04:03:52.439Z,0.30
2023-03-11T04:06:22.487Z,0.17
2023-03-11T04:08:50.651Z,0.20
2023-03-11T04:11:17.146Z,0.40
2023-03-11T04:13:44.774Z,0.10
2023-03-11T04:16:24.667Z,0.32
2023-03-11T04:18:51.364Z,0.45
2023-03-11T04:21:17.788Z,0.20
2023-03-11T04:23:44.565Z,0.15
2023-03-11T04:26:10.983Z,0.37
2023-03-11T04:28:37.386Z,0.20
2023-03-11T04:31:04.332Z,0.40
2023-03-11T04:33:31.189Z,0.20
2023-03-11T04:35:58.024Z,0.45
2023-03-11T04:38:25.025Z,0.40
2023-03-11T04:40:51.514Z,0.43
2023-03-11T04:43:17.900Z,0.30
2023-03-11T04:45:44.355Z,0.25
2023-03-11T04:48:10.779Z,0.30
2023-03-11T04:50:37.176Z,0.20
2023-03-11T04:53:03.802Z,0.30
2023-03-11T04:55:30.274Z,0.90
2023-03-11T04:57:56.647Z,0.40
2023-03-11T05:00:24.871Z,0.30
2023-03-11T05:02:52.018Z,0.10
2023-03-11T05:05:19.573Z,0.30
2023-03-11T05:07:46.203Z,0.22
2023-03-11T05:10:12.989Z,0.65
2023-03-11T05:12:39.420Z,0.43
2023-03-11T05:15:06.451Z,0.20
2023-03-11T05:17:32.886Z,0.25
2023-03-11T05:19:59.289Z,0.28
2023-03-11T05:22:25.815Z,0.20
2023-03-11T05:24:52.230Z,0.35
2023-03-11T05:27:19.800Z,0.20
2023-03-11T05:29:46.860Z,0.43
2023-03-11T05:32:13.820Z,0.28
2023-03-11T05:34:40.639Z,0.30
2023-03-11T05:37:07.650Z,0.30
2023-03-11T05:39:34.584Z,0.40
2023-03-11T05:42:01.015Z,0.40
2023-03-11T05:44:27.636Z,0.30
2023-03-11T05:46:54.138Z,0.40
2023-03-11T05:49:21.563Z,0.20
2023-03-11T05:51:48.910Z,0.43
2023-03-11T05:54:15.426Z,0.30
2023-03-11T05:56:43.014Z,0.30
2023-03-11T05:59:10.263Z,0.30
2023-03-11T06:01:36.951Z,0.22
2023-03-11T06:04:04.079Z,0.20
2023-03-11T06:06:30.501Z,0.30
2023-03-11T06:08:56.990Z,0.20
2023-03-11T06:11:26.933Z,0.30
2023-03-11T06:13:55.222Z,0.38
2023-03-11T06:16:23.048Z,0.50
2023-03-11T06:18:49.520Z,0.20
2023-03-11T06:21:21.293Z,0.20
2023-03-11T06:23:48.407Z,0.35
2023-03-11T06:26:17.990Z,0.35
2023-03-11T06:28:45.714Z,0.20
2023-03-11T06:31:16.123Z,0.30
2023-03-11T06:33:43.162Z,0.30
2023-03-11T06:36:12.777Z,0.50
2023-03-11T06:38:39.155Z,0.20
2023-03-11T06:41:07.206Z,0.10
2023-03-11T06:43:34.953Z,0.20
2023-03-11T06:46:02.201Z,0.28
2023-03-11T06:48:28.768Z,0.25
2023-03-11T06:50:55.819Z,0.40
2023-03-11T06:53:23.071Z,0.17
2023-03-11T06:56:05.460Z,0.20
2023-03-11T06:58:33.861Z,0.15
2023-03-11T07:01:18.318Z,0.45
2023-03-11T07:03:47.537Z,0.50
2023-03-11T07:06:15.679Z,0.43
2023-03-11T07:08:42.358Z,0.20
2023-03-11T07:11:13.322Z,0.25
2023-03-11T07:13:39.738Z,0.50
2023-03-11T07:16:07.993Z,0.40
2023-03-11T07:18:35.585Z,0.23
2023-03-11T07:21:06.862Z,0.82
2023-03-11T07:23:34.963Z,0.40
2023-03-11T07:26:01.991Z,0.50
2023-03-11T07:28:29.333Z,0.50
2023-03-11T07:30:56.393Z,0.50
2023-03-11T07:33:26.296Z,0.63
2023-03-11T07:35:52.903Z,0.38
2023-03-11T07:38:19.936Z,0.22
2023-03-11T07:40:46.776Z,0.40
2023-03-11T07:43:13.733Z,0.40
2023-03-11T07:45:40.319Z,0.40
2023-03-11T07:48:06.748Z,0.55
2023-03-11T07:50:33.251Z,0.30
2023-03-11T07:52:59.679Z,0.25
2023-03-11T07:55:26.175Z,0.30
2023-03-11T07:57:52.628Z,0.40
2023-03-11T08:00:19.689Z,0.30
2023-03-11T08:02:46.299Z,0.40
2023-03-11T08:05:12.979Z,0.50
2023-03-11T08:07:39.479Z,0.30
2023-03-11T08:10:06.705Z,0.55
2023-03-11T08:12:33.149Z,0.70
2023-03-11T08:14:59.571Z,0.22
2023-03-11T08:17:25.946Z,0.20
2023-03-11T08:19:52.424Z,0.40
2023-03-11T08:22:18.868Z,0.30
2023-03-11T08:24:45.297Z,0.40
2023-03-11T08:27:12.329Z,0.30
2023-03-11T08:29:38.831Z,0.50
2023-03-11T08:32:05.607Z,0.30
2023-03-11T08:34:32.889Z,0.32
2023-03-11T08:36:59.543Z,0.40
2023-03-11T08:39:25.943Z,0.30
2023-03-11T08:41:52.363Z,0.20
2023-03-11T08:44:18.799Z,0.43
2023-03-11T08:46:45.666Z,0.30
2023-03-11T08:49:12.457Z,0.30
2023-03-11T08:51:38.909Z,0.38
2023-03-11T08:54:06.204Z,0.20
2023-03-11T08:56:32.611Z,0.20
2023-03-11T08:58:59.451Z,0.10
2023-03-11T09:01:25.933Z,0.10
2023-03-11T09:03:52.631Z,0.17
2023-03-11T09:06:19.960Z,0.20
2023-03-11T09:08:48.422Z,0.30
2023-03-11T09:11:16.658Z,0.10
2023-03-11T09:13:43.697Z,0.30
2023-03-11T09:16:17.763Z,0.20
2023-03-11T09:18:44.728Z,0.10
2023-03-11T09:21:11.382Z,0.30
2023-03-11T09:23:38.024Z,0.20
2023-03-11T09:26:04.654Z,0.22
2023-03-11T09:28:31.108Z,0.10
2023-03-11T09:30:57.678Z,0.15
2023-03-11T09:33:24.603Z,0.50
2023-03-11T09:35:51.016Z,0.20
2023-03-11T09:38:17.423Z,0.28
2023-03-11T09:41:13.525Z,0.17
2023-03-11T09:43:45.928Z,0.22
2023-03-11T09:46:42.890Z,0.50
2023-03-11T09:49:24.370Z,0.20
2023-03-11T09:52:06.676Z,0.10
2023-03-11T09:54:39.280Z,0.20
2023-03-11T09:57:09.318Z,0.10
2023-03-11T09:59:38.329Z,0.10
2023-03-11T10:02:05.386Z,0.20
2023-03-11T10:05:06.592Z,0.13
2023-03-11T10:07:47.115Z,0.65
2023-03-11T10:10:15.098Z,0.10
2023-03-11T10:13:09.264Z,0.23
2023-03-11T10:16:00.771Z,0.20
2023-03-11T10:18:44.970Z,0.20
2023-03-11T10:21:37.821Z,0.20
2023-03-11T10:24:19.521Z,0.20
2023-03-11T10:26:54.158Z,0.30
2023-03-11T10:29:29.908Z,0.28
2023-03-11T10:32:15.252Z,0.30
2023-03-11T10:35:15.571Z,0.22
2023-03-11T10:37:54.416Z,0.20
2023-03-11T10:40:28.447Z,0.27
2023-03-11T10:42:59.375Z,0.28
2023-03-11T10:45:30.169Z,0.20
2023-03-11T10:47:57.981Z,0.13
2023-03-11T10:50:24.469Z,0.30
2023-03-11T10:53:09.355Z,0.30
2023-03-11T10:55:44.466Z,0.20
2023-03-11T10:58:20.060Z,0.32
2023-03-11T11:00:47.091Z,0.50
2023-03-11T11:03:23.637Z,0.25
2023-03-11T11:06:05.277Z,0.43
2023-03-11T11:08:32.337Z,0.55
2023-03-11T11:11:01.404Z,0.52
2023-03-11T11:13:31.157Z,0.43
2023-03-11T11:16:17.088Z,0.30
2023-03-11T11:18:49.209Z,0.40
2023-03-11T11:21:27.708Z,0.40
2023-03-11T11:24:12.486Z,0.30
2023-03-11T11:26:38.874Z,0.70
2023-03-11T11:29:11.273Z,0.20
2023-03-11T11:31:43.833Z,0.40
2023-03-11T11:34:34.770Z,0.20
2023-03-11T11:37:05.135Z,0.30
2023-03-11T11:39:51.563Z,0.20
2023-03-11T11:42:20.045Z,0.20
2023-03-11T11:44:51.101Z,0.30
2023-03-11T11:47:21.594Z,0.10
2023-03-11T11:49:56.023Z,0.28
2023-03-11T11:52:27.472Z,0.60
2023-03-11T11:55:02.741Z,0.20
2023-03-11T11:57:29.537Z,0.30
2023-03-11T11:59:57.525Z,0.30
2023-03-11T12:02:36.549Z,0.30
2023-03-11T12:05:32.504Z,0.20
2023-03-11T12:08:16.474Z,0.30
2023-03-11T12:10:53.197Z,0.20
2023-03-11T12:13:37.540Z,0.20
2023-03-11T12:16:34.671Z,0.25
2023-03-11T12:19:10.486Z,0.38
2023-03-11T12:22:09.691Z,0.35
2023-03-11T12:24:48.059Z,0.27
2023-03-11T12:27:27.492Z,0.50
2023-03-11T12:30:01.757Z,0.32
2023-03-11T12:32:39.970Z,0.22
2023-03-11T12:35:30.098Z,0.30
2023-03-11T12:38:03.698Z,0.20
2023-03-11T12:40:42.353Z,0.22
2023-03-11T12:43:33.713Z,0.20
2023-03-11T12:46:02.175Z,0.30
2023-03-11T12:48:45.963Z,0.30
2023-03-11T12:51:37.582Z,0.30
2023-03-11T12:54:22.670Z,0.30
2023-03-11T12:56:58.201Z,0.20
2023-03-11T12:59:52.045Z,0.20
2023-03-11T13:02:36.581Z,0.20
2023-03-11T13:05:29.391Z,0.20
2023-03-11T13:08:03.841Z,0.20
2023-03-11T13:10:35.793Z,0.25
2023-03-11T13:13:21.981Z,0.20
2023-03-11T13:15:48.631Z,0.68
2023-03-11T13:18:19.067Z,0.20
2023-03-11T13:20:49.412Z,0.13
2023-03-11T13:23:21.736Z,0.10
2023-03-11T13:25:48.101Z,0.10
2023-03-11T13:28:26.633Z,0.20
2023-03-11T13:31:15.041Z,0.20
2023-03-11T13:33:54.899Z,0.10
2023-03-11T13:36:29.210Z,0.10
2023-03-11T13:39:17.219Z,0.17
2023-03-11T13:41:44.960Z,0.38
2023-03-11T13:44:20.081Z,0.10
2023-03-11T13:46:51.081Z,0.10
2023-03-11T13:49:31.094Z,0.40
2023-03-11T13:51:59.293Z,0.30
2023-03-11T13:54:35.936Z,0.32
2023-03-11T13:57:03.750Z,0.10
2023-03-11T13:59:33.632Z,0.30
2023-03-11T14:02:04.060Z,0.20
2023-03-11T14:04:33.285Z,0.20
2023-03-11T14:07:00.360Z,0.17
2023-03-11T14:09:30.947Z,0.50
2023-03-11T14:12:04.626Z,0.10
2023-03-11T14:14:47.792Z,0.17
2023-03-11T14:17:16.919Z,0.15
2023-03-11T14:19:44.080Z,0.10
2023-03-11T14:22:11.097Z,0.20
2023-03-11T14:24:39.646Z,0.10
2023-03-11T14:27:09.340Z,0.10
2023-03-11T14:29:40.087Z,0.10
2023-03-11T14:32:34.117Z,0.10
2023-03-11T14:35:00.998Z,0.30
2023-03-11T14:37:36.329Z,0.10
2023-03-11T14:40:04.593Z,0.10
2023-03-11T14:42:40.462Z,0.20
2023-03-11T14:45:14.732Z,0.10
2023-03-11T14:48:05.521Z,0.20
2023-03-11T14:50:35.216Z,0.10
2023-03-11T14:53:14.060Z,0.10
2023-03-11T14:55:54.912Z,0.20
2023-03-11T14:58:26.308Z,0.10
2023-03-11T15:01:14.977Z,0.30
2023-03-11T15:03:51.014Z,0.20
2023-03-11T15:06:20.700Z,0.20
2023-03-11T15:08:51.809Z,0.25
2023-03-11T15:11:21.568Z,0.10
2023-03-11T15:13:51.192Z,0.20
2023-03-11T15:16:44.004Z,0.30
2023-03-11T15:19:25.838Z,0.22
2023-03-11T15:21:54.481Z,0.20
2023-03-11T15:24:27.770Z,0.15
2023-03-11T15:26:57.806Z,0.20
2023-03-11T15:29:25.916Z,0.13
2023-03-11T15:31:52.437Z,0.20
2023-03-11T15:34:18.780Z,0.20
2023-03-11T15:36:56.465Z,0.20
2023-03-11T15:39:43.192Z,0.20
2023-03-11T15:42:20.459Z,0.20
2023-03-11T15:45:02.246Z,0.15
2023-03-11T15:47:29.031Z,0.10
2023-03-11T15:49:55.451Z,0.30
2023-03-11T15:52:22.049Z,0.20
2023-03-11T15:54:55.537Z,0.35
2023-03-11T15:57:24.997Z,0.20
2023-03-11T15:59:53.420Z,0.20
2023-03-11T16:02:26.791Z,0.30
2023-03-11T16:04:53.602Z,0.10
2023-03-11T16:07:33.027Z,0.17
2023-03-11T16:10:05.541Z,0.30
2023-03-11T16:12:32.052Z,0.40
2023-03-11T16:14:58.450Z,0.30
2023-03-11T16:17:24.999Z,0.30
2023-03-11T16:19:51.530Z,0.20
2023-03-11T16:22:22.066Z,0.40
2023-03-11T16:24:50.983Z,0.20
2023-03-11T16:27:18.306Z,0.28
2023-03-11T16:29:45.644Z,0.20
2023-03-11T16:32:12.879Z,0.65
2023-03-11T16:34:40.237Z,0.10
2023-03-11T16:37:07.623Z,0.10
2023-03-11T16:39:34.974Z,0.10
2023-03-11T16:42:01.816Z,0.27
2023-03-11T16:44:28.581Z,0.20
2023-03-11T16:46:55.151Z,0.50
2023-03-11T16:49:21.670Z,0.20
2023-03-11T16:51:48.075Z,0.10
2023-03-11T16:54:15.601Z,0.20
2023-03-11T16:56:42.159Z,0.15
2023-03-11T16:59:08.856Z,0.28
2023-03-11T17:01:38.606Z,0.20
2023-03-11T17:04:08.493Z,0.30
2023-03-11T17:06:35.053Z,0.20
2023-03-11T17:09:01.698Z,0.28
2023-03-11T17:11:30.327Z,0.20
2023-03-11T17:14:10.056Z,0.20
2023-03-11T17:16:42.297Z,0.40
2023-03-11T17:19:08.745Z,0.30
2023-03-11T17:21:35.253Z,0.30
2023-03-11T17:24:01.709Z,0.20
2023-03-11T17:26:30.816Z,0.30
2023-03-11T17:28:57.356Z,0.40
2023-03-11T17:31:23.819Z,0.30
2023-03-11T17:33:50.818Z,0.32
2023-03-11T17:36:18.457Z,0.10
2023-03-11T17:38:46.759Z,0.20
2023-03-11T17:41:16.405Z,0.40
2023-03-11T17:43:43.448Z,0.30
2023-03-11T17:46:14.170Z,0.40
2023-03-11T17:48:41.773Z,0.40
2023-03-11T17:51:13.311Z,0.30
2023-03-11T17:53:41.073Z,0.47
2023-03-11T17:56:08.311Z,0.23
2023-03-11T17:58:35.533Z,0.28
2023-03-11T18:01:07.620Z,0.52
2023-03-11T18:03:34.090Z,0.30
2023-03-11T18:06:03.587Z,0.60
2023-03-11T18:08:31.346Z,0.43
2023-03-11T18:11:09.589Z,0.88
2023-03-11T18:13:37.068Z,1.10
2023-03-11T18:16:06.500Z,1.00
2023-03-11T18:18:34.409Z,0.70
2023-03-11T18:21:06.284Z,1.23
2023-03-11T18:23:33.848Z,1.67
2023-03-11T18:26:02.869Z,1.77
2023-03-11T18:28:29.883Z,1.75
2023-03-11T18:30:56.346Z,1.90
2023-03-11T18:33:23.793Z,1.10
2023-03-11T18:35:50.628Z,1.15
2023-03-11T18:38:17.058Z,1.40
2023-03-11T18:40:44.198Z,0.70
2023-03-11T18:43:13.640Z,1.48
2023-03-11T18:45:40.218Z,0.90
2023-03-11T18:48:06.747Z,1.00
2023-03-11T18:50:33.227Z,1.08
2023-03-11T18:53:00.019Z,0.73
2023-03-11T18:55:26.455Z,0.73
2023-03-11T18:57:53.141Z,0.80
2023-03-11T19:00:23.504Z,1.30
2023-03-11T19:02:53.908Z,1.38
2023-03-11T19:05:21.556Z,1.70
2023-03-11T19:07:48.138Z,1.98
2023-03-11T19:10:17.373Z,1.57
2023-03-11T19:12:44.976Z,2.22
2023-03-11T19:15:11.535Z,2.45
2023-03-11T19:17:37.949Z,2.60
2023-03-11T19:20:08.252Z,3.35
2023-03-11T19:22:36.125Z,2.87
2023-03-11T19:25:02.656Z,2.90
2023-03-11T19:27:29.330Z,2.95
2023-03-11T19:29:55.767Z,2.67
2023-03-11T19:32:22.693Z,2.80
2023-03-11T19:34:49.142Z,2.90
2023-03-11T19:37:17.166Z,3.13
2023-03-11T19:39:43.654Z,3.13
2023-03-11T19:42:10.179Z,3.75
2023-03-11T19:44:36.721Z,3.15
2023-03-11T19:47:03.171Z,3.60
2023-03-11T19:49:29.551Z,3.50
2023-03-11T19:51:56.098Z,4.25
2023-03-11T19:54:22.571Z,4.18
2023-03-11T19:56:49.066Z,4.80
2023-03-11T19:59:15.687Z,4.57
2023-03-11T20:01:44.633Z,3.85
2023-03-11T20:04:11.225Z,3.10
2023-03-11T20:06:37.768Z,3.22
2023-03-11T20:09:05.806Z,3.15
2023-03-11T20:11:32.318Z,2.67
2023-03-11T20:13:58.850Z,2.88
2023-03-11T20:16:25.288Z,3.22
2023-03-11T20:18:51.974Z,3.17
2023-03-11T20:21:18.831Z,4.10
2023-03-11T20:23:45.372Z,4.07
2023-03-11T20:26:14.994Z,4.82
2023-03-11T20:28:41.991Z,4.85
2023-03-11T20:31:15.833Z,4.32
2023-03-11T20:33:42.978Z,4.40
2023-03-11T20:36:12.738Z,4.10
2023-03-11T20:38:39.761Z,4.03
2023-03-11T20:41:08.124Z,3.60
2023-03-11T20:43:35.993Z,3.25
2023-03-11T20:46:03.488Z,3.47
2023-03-11T20:48:30.312Z,3.30
2023-03-11T20:51:06.075Z,3.10
2023-03-11T20:53:33.379Z,3.03
2023-03-11T20:56:04.869Z,2.80
2023-03-11T20:58:31.297Z,2.80
2023-03-11T21:00:57.753Z,2.40
2023-03-11T21:03:24.371Z,3.17
2023-03-11T21:05:50.762Z,2.95
2023-03-11T21:08:17.486Z,2.20
2023-03-11T21:10:44.084Z,3.22
2023-03-11T21:13:10.587Z,3.20
2023-03-11T21:15:37.017Z,3.70
2023-03-11T21:18:03.701Z,2.80
2023-03-11T21:20:30.549Z,2.50
2023-03-11T21:22:57.012Z,3.35
2023-03-11T21:25:23.506Z,3.40
2023-03-11T21:27:50.023Z,4.00
2023-03-11T21:30:16.544Z,3.70
2023-03-11T21:32:43.045Z,3.28
2023-03-11T21:35:09.674Z,2.30
2023-03-11T21:37:36.279Z,2.20
2023-03-11T21:40:03.677Z,2.40
2023-03-11T21:42:30.207Z,2.70
2023-03-11T21:44:56.825Z,2.50
2023-03-11T21:47:23.347Z,2.42
2023-03-11T21:49:49.864Z,2.93
2023-03-11T21:52:16.457Z,2.85
2023-03-11T21:54:42.891Z,3.00
2023-03-11T21:57:09.384Z,3.50
2023-03-11T21:59:35.940Z,3.10
2023-03-11T22:02:03.316Z,3.53
2023-03-11T22:04:30.899Z,2.03
2023-03-11T22:06:57.692Z,2.75
2023-03-11T22:09:25.709Z,3.10
2023-03-11T22:11:52.396Z,3.15
2023-03-11T22:14:19.047Z,2.60
2023-03-11T22:16:45.516Z,2.88
2023-03-11T22:19:13.663Z,2.90
2023-03-11T22:21:40.159Z,2.63
2023-03-11T22:24:06.920Z,2.90
2023-03-11T22:26:33.352Z,3.53
2023-03-11T22:28:59.854Z,3.20
2023-03-11T22:31:26.344Z,2.65
2023-03-11T22:33:52.884Z,2.55
2023-03-11T22:36:19.323Z,2.55
2023-03-11T22:38:45.898Z,2.70
2023-03-11T22:41:13.737Z,3.05
2023-03-11T22:43:40.542Z,3.20
2023-03-11T22:46:07.128Z,2.78
2023-03-11T22:48:34.421Z,3.60
2023-03-11T22:51:00.957Z,3.20
2023-03-11T22:53:27.628Z,2.88
2023-03-11T22:55:54.131Z,2.78
2023-03-11T22:58:21.121Z,2.88
2023-03-11T23:00:47.794Z,2.88
2023-03-11T23:03:14.951Z,2.53
2023-03-11T23:05:45.839Z,3.15
2023-03-11T23:08:16.712Z,3.38
2023-03-11T23:10:45.461Z,2.80
2023-03-11T23:13:12.839Z,3.40
2023-03-11T23:15:44.282Z,3.90
2023-03-11T23:18:11.768Z,2.75
2023-03-11T23:20:40.099Z,3.28
2023-03-11T23:23:07.579Z,3.78
2023-03-11T23:25:34.724Z,3.50
2023-03-11T23:28:03.971Z,3.90
2023-03-11T23:30:30.396Z,3.95
2023-03-11T23:32:57.387Z,3.80
2023-03-11T23:35:23.877Z,3.53
2023-03-11T23:37:51.343Z,4.10
2023-03-11T23:40:17.941Z,3.40
2023-03-11T23:42:44.454Z,4.03
2023-03-11T23:45:11.365Z,4.97
2023-03-11T23:47:37.851Z,4.68
2023-03-11T23:50:04.640Z,4.55
2023-03-11T23:52:31.084Z,4.10
2023-03-11T23:54:57.502Z,4.45
2023-03-11T23:57:24.003Z,4.60
2023-03-11T23:59:50.380Z,4.70
